Latest Weather Observations for Oakey

IDQ60801

Issued at 12:42 am EST Monday 18 November 2019 (issued every 10 minutes, with the page automatically refreshed every 10 minutes)

About weather observations | Map of weather stations | Latest weather observations for QLD | Other Formats
Station Details ID: 041359 Name: OAKEY AERO Lat: -27.40 Lon: 151.74 Height: 405.69 m
Data from the previous 72 hours. | See also: Recent months at Oakey
Date/Time
EST
Temp
°C
App
Temp
°C
Dew
Point
°C
Rel
Hum
%
Delta-T
°C
Wind Press
QNH
hPa
Press
MSL
hPa
Rain since
9am
mm
Dir  Spd
km/h
Gust
km/h
Spd
kts
Gust
kts
18/12:37am 20.5 16.7 13.7 65 4.0 E 26 35 14 19 1016.2 1014.4 0.0
18/12:30am 20.7 17.6 14.6 68 3.6 E 24 30 13 16 1016.2 1014.4 0.0
18/12:00am 21.7 20.0 15.8 69 3.6 ESE 19 28 10 15 1016.3 1014.5 0.0
 
Date/Time
EST
Temp
°C
App
Temp
°C
Dew
Point
°C
Rel
Hum
%
Delta-T
°C
Wind Press
QNH
hPa
Press
MSL
hPa
Rain since
9am
mm
Dir  Spd
km/h
Gust
km/h
Spd
kts
Gust
kts
17/11:30pm 21.8 19.6 13.4 59 4.9 SE 17 20 9 11 1016.3 1014.5 0.0
17/11:00pm 22.2 19.5 13.5 57 5.1 SSE 20 24 11 13 1016.3 1014.5 0.0
17/10:30pm 22.6 19.9 12.8 54 5.7 SE 19 24 10 13 1016.2 1014.4 0.0
17/10:00pm 23.3 18.6 9.3 41 7.7 SSE 24 33 13 18 1015.9 1014.0 0.0
17/09:30pm 25.6 19.0 -2.9 15 12.7 SSW 22 32 12 17 1015.3 1013.5 0.0
17/09:00pm 26.0 19.5 -2.6 15 12.9 SSW 22 30 12 16 1014.7 1012.9 0.0
17/08:30pm 26.7 19.9 -2.1 15 13.2 SSW 24 30 13 16 1014.4 1012.6 0.0
17/08:00pm 27.5 19.9 -2.3 14 13.7 SSW 28 35 15 19 1014.1 1012.3 0.0
17/07:30pm 28.3 20.8 -1.7 14 14.0 SSW 28 35 15 19 1013.9 1012.0 0.0
17/07:00pm 29.3 21.1 -0.9 14 14.4 SSW 32 43 17 23 1013.3 1011.4 0.0
17/06:30pm 30.0 22.6 -0.4 14 14.7 SSW 28 35 15 19 1012.2 1010.4 0.0
17/06:00pm 31.1 21.9 -1.6 12 15.6 SW 37 48 20 26 1011.4 1009.5 0.0
17/05:30pm 32.4 22.4 -1.8 11 16.4 SW 41 54 22 29 1010.9 1009.0 0.0
17/05:16pm 32.9 23.5 -2.7 10 16.9 SW 37 56 20 30 1010.6 1008.7 0.0
17/05:00pm 33.1 22.6 -2.6 10 17.0 SW 43 59 23 32 1010.2 1008.4 0.0
17/04:42pm 34.2 24.4 -3.2 9 17.8 SW 39 57 21 31 1009.8 1008.0 0.0
17/04:30pm 34.3 23.7 -3.1 9 17.8 SW 43 57 23 31 1009.5 1007.6 0.0
17/04:23pm 34.5 24.7 -2.9 9 17.9 SW 39 48 21 26 1009.5 1007.6 0.0
17/04:01pm 34.9 26.3 -2.6 9 18.1 WSW 33 52 18 28 1009.2 1007.3 0.0
17/04:00pm 35.2 26.8 -2.4 9 18.2 WSW 32 48 17 26 1009.2 1007.3 0.0
17/03:32pm 35.8 26.5 -2.0 9 18.5 WSW 37 56 20 30 1009.1 1007.2 0.0
17/03:30pm 35.4 25.7 -2.3 9 18.3 WSW 39 56 21 30 1009.1 1007.2 0.0
17/03:05pm 35.8 26.9 -2.0 9 18.5 WSW 35 57 19 31 1009.0 1007.1 0.0
17/03:00pm 36.0 26.5 -0.4 10 18.3 WSW 39 54 21 29 1009.1 1007.2 0.0
17/02:37pm 36.5 28.4 0.0 10 18.5 WSW 32 56 17 30 1009.0 1007.1 0.0
17/02:30pm 35.6 26.1 -0.7 10 18.1 WSW 39 56 21 30 1009.1 1007.2 0.0
17/02:00pm 36.3 26.5 -0.2 10 18.5 W 41 59 22 32 1009.3 1007.4 0.0
17/01:39pm 36.0 28.1 2.1 12 17.7 WSW 33 52 18 28 1009.5 1007.6 0.0
17/01:30pm 35.7 27.6 3.0 13 17.3 W 35 48 19 26 1009.6 1007.7 0.0
17/01:00pm 34.7 27.6 3.3 14 16.6 W 30 50 16 27 1010.2 1008.4 0.0
17/12:57pm 36.4 29.5 4.6 14 17.3 W 30 50 16 27 1010.4 1008.5 0.0
17/12:30pm 35.0 28.5 6.3 17 15.9 W 30 43 16 23 1011.0 1009.1 0.0
17/12:00pm 34.4 29.0 9.6 22 14.5 WNW 28 44 15 24 1011.6 1009.7 0.0
17/11:30am 34.4 30.1 12.1 26 13.5 W 26 41 14 22 1012.3 1010.5 0.0
17/11:00am 31.8 27.5 12.1 30 11.8 W 26 37 14 20 1012.7 1010.9 0.0
17/10:30am 31.8 28.6 13.1 32 11.4 WNW 22 35 12 19 1013.3 1011.4 0.0
17/10:00am 31.4 28.9 13.6 33 10.9 WNW 19 32 10 17 1013.7 1011.8 0.0
17/09:30am 30.1 28.1 13.8 37 10.0 NNW 17 30 9 16 1014.0 1012.2 0.0
17/09:00am 28.7 28.2 14.9 43 8.5 NNW 11 22 6 12 1014.3 1012.5 0.0
17/08:30am 26.7 25.6 15.4 50 7.0 NNW 15 24 8 13 1014.8 1013.0 0.0
17/08:00am 25.9 25.8 17.0 58 5.6 NNE 13 20 7 11 1015.1 1013.3 0.0
17/07:30am 24.3 24.1 17.5 66 4.3 NE 15 20 8 11 1015.3 1013.5 0.0
17/07:00am 22.8 22.6 16.8 69 3.7 NE 13 20 7 11 1015.4 1013.6 0.0
17/06:30am 21.5 20.6 16.9 75 2.9 ENE 17 22 9 12 1015.3 1013.5 0.0
17/06:00am 20.0 19.2 16.0 78 2.4 ENE 15 20 8 11 1015.0 1013.2 0.0
17/05:30am 19.1 18.1 15.6 80 2.1 ENE 15 20 8 11 1014.9 1013.1 0.0
17/05:00am 18.6 17.5 15.3 81 2.0 ENE 15 19 8 10 1014.7 1012.9 0.0
17/04:30am 18.4 18.0 15.1 81 2.0 ENE 11 15 6 8 1014.5 1012.7 0.0
17/04:00am 18.3 18.2 15.0 81 2.0 E 9 13 5 7 1014.3 1012.5 0.0
17/03:30am 19.1 18.6 16.0 82 1.9 E 13 15 7 8 1014.0 1012.2 0.0
17/03:00am 19.7 19.4 16.5 82 2.0 E 13 15 7 8 1014.0 1012.2 0.0
17/02:30am 20.4 19.6 17.0 81 2.1 E 17 24 9 13 1014.0 1012.2 0.0
17/02:00am 20.8 19.1 17.2 80 2.2 ENE 22 28 12 15 1014.0 1012.2 0.0
17/01:30am 21.1 20.2 16.9 77 2.6 ENE 17 28 9 15 1014.0 1012.2 0.0
17/01:00am 21.4 19.9 16.4 73 3.1 E 19 22 10 12 1014.1 1012.3 0.0
17/12:30am 21.9 20.2 16.2 70 3.5 ENE 20 26 11 14 1014.2 1012.4 0.0
17/12:00am 22.4 20.1 15.7 66 4.1 E 22 28 12 15 1014.3 1012.5 0.0
 
Date/Time
EST
Temp
°C
App
Temp
°C
Dew
Point
°C
Rel
Hum
%
Delta-T
°C
Wind Press
QNH
hPa
Press
MSL
hPa
Rain since
9am
mm
Dir  Spd
km/h
Gust
km/h
Spd
kts
Gust
kts
16/11:30pm 22.8 19.8 14.9 61 4.8 E 24 32 13 17 1014.7 1012.9 0.0
16/11:00pm 23.2 20.5 14.5 58 5.2 E 22 28 12 15 1014.8 1013.0 0.0
16/10:30pm 23.9 21.0 14.0 54 5.9 E 22 28 12 15 1014.6 1012.8 0.0
16/10:00pm 24.7 20.7 14.2 52 6.3 ENE 28 33 15 18 1014.5 1012.7 0.0
16/09:30pm 25.3 21.5 14.7 51 6.4 E 28 46 15 25 1014.3 1012.5 0.0
16/09:29pm 25.3 21.6 15.0 53 6.3 E 28 46 15 25 1014.3 1012.5 0.0
16/09:00pm 25.6 21.5 15.0 52 6.5 E 30 39 16 21 1014.0 1012.2 0.0
16/08:30pm 26.6 21.9 14.4 47 7.4 E 32 39 17 21 1013.8 1011.9 0.0
16/08:00pm 27.7 23.7 8.1 29 10.8 ESE 19 24 10 13 1013.2 1011.3 0.0
16/07:30pm 29.4 24.8 -0.9 14 14.5 S 13 17 7 9 1012.5 1010.7 0.0
16/07:00pm 30.0 24.6 -1.4 13 14.9 SSW 17 20 9 11 1012.0 1010.2 0.0
16/06:30pm 32.1 26.4 -0.9 12 16.0 SW 19 26 10 14 1011.4 1009.5 0.0
16/06:00pm 33.5 27.4 -2.3 10 17.2 WSW 20 32 11 17 1011.0 1009.1 0.0
16/05:30pm 34.7 28.9 -1.4 10 17.7 SW 19 28 10 15 1010.6 1008.7 0.0
16/05:00pm 35.3 28.8 0.4 11 17.7 WSW 24 39 13 21 1010.1 1008.3 0.0
16/04:30pm 35.6 30.7 1.8 12 17.6 WNW 17 26 9 14 1010.0 1008.2 0.0
16/04:00pm 35.7 30.2 1.9 12 17.6 W 20 32 11 17 1010.2 1008.4 0.0
16/03:30pm 36.5 31.3 2.5 12 17.9 WSW 19 41 10 22 1010.5 1008.6 0.0
16/03:00pm 35.4 30.8 3.9 14 16.9 WSW 17 35 9 19 1010.7 1008.8 0.0
16/02:30pm 35.3 28.6 3.8 14 16.9 W 28 43 15 23 1010.9 1009.0 0.0
16/02:00pm 35.5 31.1 4.9 15 16.7 WSW 17 30 9 16 1011.5 1009.6 0.0
16/01:30pm 34.6 30.8 9.1 21 14.8 NW 19 30 10 16 1012.0 1010.2 0.0
16/01:00pm 34.0 30.8 9.9 23 14.1 W 17 26 9 14 1012.7 1010.9 0.0
16/12:30pm 34.0 30.8 9.9 23 14.1 W 17 28 9 15 1013.2 1011.3 0.0
16/12:00pm 33.0 29.2 9.7 24 13.5 W 20 37 11 20 1013.7 1011.8 0.0
16/11:30am 33.0 29.0 10.4 25 13.3 NW 22 39 12 21 1014.2 1012.4 0.0
16/11:00am 32.4 26.8 7.3 21 14.0 W 26 39 14 21 1014.7 1012.9 0.0
16/10:30am 31.5 27.1 9.1 25 12.8 WNW 22 33 12 18 1015.0 1013.2 0.0
16/10:00am 30.8 26.7 10.2 28 11.9 W 22 35 12 19 1015.2 1013.4 0.0
16/09:30am 30.4 25.8 9.8 28 11.8 W 24 35 13 19 1015.4 1013.6 0.0
16/09:00am 29.7 25.3 10.3 30 11.2 WNW 24 35 13 19 1015.6 1013.7 0.0
16/08:30am 28.9 23.9 11.0 33 10.4 WNW 28 39 15 21 1015.7 1013.8 0.0
16/08:00am 27.5 22.7 11.5 37 9.3 WNW 28 35 15 19 1015.9 1014.0 0.0
16/07:30am 26.5 22.6 12.2 41 8.4 WNW 24 32 13 17 1015.7 1013.8 0.0
16/07:21am 26.5 23.6 12.9 43 8.1 WNW 20 32 11 17 1015.7 1013.8 0.0
16/07:00am 24.1 23.4 12.1 47 7.0 WNW 7 11 4 6 1015.6 1013.7 0.0
16/06:30am 21.3 20.2 10.8 51 5.9 SE 7 7 4 4 1015.4 1013.6 0.0
16/06:00am 18.4 17.7 8.7 53 5.1 E 2 7 1 4 1015.2 1013.4 0.0
16/05:30am 15.6 13.9 5.8 52 4.8 E 4 7 2 4 1014.9 1013.1 0.0
16/05:00am 13.2 10.3 2.7 49 4.7 NE 7 9 4 5 1014.7 1012.9 0.0
16/04:30am 14.2 11.2 3.9 50 4.8 E 9 11 5 6 1014.5 1012.7 0.0
16/04:00am 14.8 11.5 4.5 50 4.9 SE 11 13 6 7 1014.4 1012.6 0.0
16/03:30am 14.3 12.5 3.5 48 5.0 E 2 7 1 4 1014.3 1012.5 0.0
16/03:00am 14.8 11.5 2.7 44 5.5 ESE 9 11 5 6 1014.1 1012.3 0.0
16/02:30am 14.7 11.3 1.6 41 5.8 E 9 9 5 5 1014.2 1012.4 0.0
16/02:00am 16.0 12.4 0.6 35 6.8 SE 9 9 5 5 1014.1 1012.3 0.0
16/01:30am 15.3 11.4 -1.7 31 7.1 ESE 9 11 5 6 1014.1 1012.3 0.0
16/01:00am 17.1 13.9 -0.6 30 7.7 SSE 6 7 3 4 1014.0 1012.2 0.0
16/12:30am 16.3 12.3 -2.2 28 7.7 ESE 9 11 5 6 1014.1 1012.3 0.0
16/12:00am 17.8 14.0 -0.9 28 8.1 ENE 9 13 5 7 1014.2 1012.4 0.0
 
Date/Time
EST
Temp
°C
App
Temp
°C
Dew
Point
°C
Rel
Hum
%
Delta-T
°C
Wind Press
QNH
hPa
Press
MSL
hPa
Rain since
9am
mm
Dir  Spd
km/h
Gust
km/h
Spd
kts
Gust
kts
15/11:30pm 18.9 15.5 -0.5 27 8.6 N 7 9 4 5 1014.5 1012.7 0.0
15/11:00pm 21.7 18.1 0.8 25 9.7 N 9 11 5 6 1014.4 1012.6 0.0
15/10:30pm 24.0 19.7 1.0 22 10.9 N 13 20 7 11 1014.4 1012.6 0.0
15/10:00pm 20.2 13.9 -4.1 19 10.1 NNE 20 24 11 13 1014.2 1012.4 0.0
15/09:30pm 18.8 13.4 -4.6 20 9.5 NNE 15 17 8 9 1014.1 1012.3 0.0
15/09:00pm 20.9 17.3 -3.6 19 10.4 ENE 6 9 3 5 1013.7 1011.8 0.0
15/08:30pm 23.5 18.8 -5.5 14 12.1 SE 11 11 6 6 1013.2 1011.3 0.0
15/08:00pm 26.5 21.1 -4.1 13 13.5 SSW 15 19 8 10 1012.8 1011.0 0.0
15/07:30pm 26.0 21.0 -4.5 13 13.3 SSW 13 15 7 8 1012.7 1010.9 0.0
15/07:00pm 26.6 21.9 -5.1 12 13.7 SW 11 13 6 7 1012.5 1010.7 0.0
15/06:30pm 28.9 23.1 -4.5 11 14.9 WSW 17 20 9 11 1012.0 1010.2 0.0
15/06:00pm 31.6 25.2 -5.1 9 16.6 W 20 28 11 15 1011.6 1009.7 0.0
15/05:30pm 32.8 26.1 -4.2 9 17.1 W 22 30 12 16 1011.2 1009.3 0.0
15/05:00pm 33.5 25.9 -5.2 8 17.7 WSW 26 39 14 21 1011.0 1009.1 0.0
15/04:30pm 34.0 28.2 -4.9 8 17.9 W 17 35 9 19 1010.8 1008.9 0.0
15/04:00pm 34.4 26.5 -4.6 8 18.2 WSW 28 39 15 21 1010.8 1008.9 0.0
15/03:30pm 33.9 27.7 -4.9 8 17.9 W 19 35 10 19 1010.9 1009.0 0.0
15/03:00pm 34.5 27.0 -4.5 8 18.2 WSW 26 35 14 19 1011.1 1009.2 0.0
15/02:30pm 34.1 26.4 -3.2 9 17.7 W 28 43 15 23 1011.4 1009.5 0.0
15/02:00pm 34.1 28.1 -1.8 10 17.4 WNW 20 33 11 18 1011.8 1009.9 0.0
15/01:30pm 32.2 24.9 -3.2 10 16.6 WNW 26 39 14 21 1012.3 1010.5 0.0
15/01:00pm 32.3 24.6 -3.2 10 16.6 W 28 46 15 25 1013.0 1011.1 0.0
15/12:30pm 31.9 24.5 -3.5 10 16.5 WNW 26 37 14 20 1013.5 1011.6 0.0
15/12:00pm 31.5 24.2 -2.5 11 16.0 WNW 26 39 14 21 1013.8 1011.9 0.0
15/11:30am 31.1 24.6 -2.8 11 15.9 W 22 39 12 21 1014.3 1012.5 0.0
15/11:00am 30.1 24.1 -1.3 13 14.9 W 20 33 11 18 1015.0 1013.2 0.0
15/10:30am 29.2 24.4 -0.1 15 14.2 W 15 24 8 13 1015.6 1013.7 0.0
15/10:00am 28.5 24.6 3.4 20 12.8 W 13 24 7 13 1015.9 1014.0 0.0
15/09:30am 27.3 24.7 6.1 26 11.3 NNW 9 15 5 8 1016.2 1014.4 0.0
15/09:00am 26.2 24.4 7.3 30 10.2 WSW 6 11 3 6 1016.3 1014.5 0.0
15/08:30am 24.8 22.6 7.9 34 9.1 NW 9 13 5 7 1016.4 1014.6 0.0
15/08:00am 23.3 22.7 12.3 50 6.4 W 7 11 4 6 1016.3 1014.5 0.0
15/07:30am 21.7 22.5 13.6 60 4.8 S 2 7 1 4 1016.3 1014.5 0.0
15/07:00am 20.1 20.1 15.1 73 3.0 E 9 13 5 7 1016.2 1014.4 0.0
15/06:44am 18.9 18.5 15.2 79 2.2 E 11 13 6 7 1016.2 1014.4 0.0
15/06:30am 18.1 17.7 15.2 83 1.7 E 11 13 6 7 1016.0 1014.1 0.0
15/06:00am 15.7 15.8 14.4 92 0.8 ESE 7 9 4 5 1015.7 1013.8 0.0
15/05:30am 13.3 12.1 12.8 97 0.3 ESE 11 11 6 6 1015.4 1013.6 0.0
15/05:00am 11.8 10.4 11.0 95 0.4 ESE 9 9 5 5 1015.1 1013.3 0.0
15/04:30am 13.1 12.1 12.2 94 0.5 E 9 11 5 6 1014.8 1013.0 0.0
15/04:25am 12.7 11.0 11.3 91 0.8 E 11 11 6 6 1014.7 1012.9 0.0
15/04:20am 12.9 11.3 11.5 91 0.8 E 11 11 6 6 1014.7 1012.9 0.0
15/04:02am 13.6 12.4 12.7 94 0.5 ENE 11 13 6 7 1014.6 1012.8 0.0
15/04:00am 13.7 12.5 12.8 94 0.5 ENE 11 13 6 7 1014.6 1012.8 0.0
15/03:30am 14.6 13.2 13.5 93 0.6 ENE 13 15 7 8 1014.4 1012.6 0.0
15/03:00am 13.7 12.1 11.4 86 1.2 ENE 11 13 6 7 1014.6 1012.8 0.0
15/02:30am 15.2 14.5 13.1 87 1.2 ENE 9 11 5 6 1014.5 1012.7 0.0
15/02:00am 16.0 14.7 13.8 87 1.3 E 13 19 7 10 1014.6 1012.8 0.0
15/01:30am 15.6 14.6 12.4 81 1.8 E 9 13 5 7 1014.6 1012.8 0.0
15/01:00am 16.5 16.2 13.4 82 1.8 E 7 11 4 6 1014.9 1013.1 0.0

Other formats

Comma delimited format used in spreadsheet applications
http://www.bom.gov.au/fwo/IDQ60801/IDQ60801.94552.axf

JavaScript Object Notation format (JSON) in row-major order
http://www.bom.gov.au/fwo/IDQ60801/IDQ60801.94552.json

Data quality

Most of these data are generated automatically and are frequently updated. Quality checks on data are not normally performed. It is possible for incorrect values to appear. Refer to information at About Latest Weather Observations and please check the disclaimer before using these data.